createdAt,value
2022-11-27T00:00:02.222Z,102670.13
2022-11-27T00:02:29.119Z,102670.34
2022-11-27T00:04:56.068Z,102660.38
2022-11-27T00:07:23.002Z,102650.59
2022-11-27T00:09:49.908Z,102664.94
2022-11-27T00:12:16.758Z,102649.22
2022-11-27T00:14:43.664Z,102639.44
2022-11-27T00:17:10.471Z,102636.47
2022-11-27T00:19:37.720Z,102630.28
2022-11-27T00:22:04.861Z,102630.28
2022-11-27T00:24:31.851Z,102629.28
2022-11-27T00:26:58.615Z,102629.28
2022-11-27T00:29:29.305Z,102621.53
2022-11-27T00:31:56.721Z,102627.50
2022-11-27T00:34:23.667Z,102616.34
2022-11-27T00:36:50.499Z,102615.75
2022-11-27T00:39:17.472Z,102610.16
2022-11-27T00:41:44.365Z,102615.53
2022-11-27T00:44:12.665Z,102616.94
2022-11-27T00:46:41.704Z,102613.75
2022-11-27T00:49:16.105Z,102613.94
2022-11-27T00:51:43.460Z,102609.97
2022-11-27T00:54:10.682Z,102611.19
2022-11-27T00:56:39.683Z,102608.78
2022-11-27T00:59:07.718Z,102612.00
2022-11-27T01:01:38.512Z,102615.38
2022-11-27T01:04:07.703Z,102611.22
2022-11-27T01:06:34.901Z,102614.19
2022-11-27T01:09:04.090Z,102611.78
2022-11-27T01:11:33.342Z,102604.00
2022-11-27T01:14:04.250Z,102608.59
2022-11-27T01:16:33.004Z,102607.22
2022-11-27T01:19:01.374Z,102601.44
2022-11-27T01:21:32.536Z,102592.06
2022-11-27T01:24:00.980Z,102588.88
2022-11-27T01:26:27.984Z,102584.53
2022-11-27T01:28:56.639Z,102576.97
2022-11-27T01:31:26.764Z,102569.19
2022-11-27T01:33:57.037Z,102580.13
2022-11-27T01:36:24.083Z,102577.13
2022-11-27T01:38:51.649Z,102573.75
2022-11-27T01:41:20.021Z,102574.53
2022-11-27T01:43:53.076Z,102570.97
2022-11-27T01:46:30.864Z,102565.41
2022-11-27T01:49:08.754Z,102556.63
2022-11-27T01:51:40.146Z,102551.84
2022-11-27T01:54:09.152Z,102543.91
2022-11-27T01:56:36.722Z,102529.16
2022-11-27T01:59:04.366Z,102523.78
2022-11-27T02:01:31.224Z,102524.56
2022-11-27T02:04:00.852Z,102521.78
2022-11-27T02:06:28.174Z,102513.00
2022-11-27T02:08:56.250Z,102503.66
2022-11-27T02:11:44.993Z,102499.06
2022-11-27T02:14:49.168Z,102506.84
2022-11-27T02:17:38.856Z,102496.47
2022-11-27T02:20:47.353Z,102481.34
2022-11-27T02:23:23.333Z,102486.94
2022-11-27T02:26:11.938Z,102482.75
2022-11-27T02:28:57.587Z,102475.41
2022-11-27T02:31:53.797Z,102478.97
2022-11-27T02:34:45.438Z,102480.00
2022-11-27T02:37:44.733Z,102479.38
2022-11-27T02:40:26.301Z,102488.75
2022-11-27T02:42:58.595Z,102494.91
2022-11-27T02:45:40.726Z,102490.34
2022-11-27T02:48:09.400Z,102487.75
2022-11-27T02:50:40.304Z,102490.13
2022-11-27T02:53:19.002Z,102484.53
2022-11-27T02:55:48.976Z,102470.81
2022-11-27T02:58:21.863Z,102479.38
2022-11-27T03:00:50.850Z,102473.41
2022-11-27T03:03:23.828Z,102478.78
2022-11-27T03:05:55.825Z,102480.94
2022-11-27T03:08:36.743Z,102474.00
2022-11-27T03:11:05.393Z,102474.59
2022-11-27T03:13:46.333Z,102467.03
2022-11-27T03:16:46.330Z,102471.78
2022-11-27T03:19:23.145Z,102472.59
2022-11-27T03:21:58.491Z,102482.13
2022-11-27T03:24:25.883Z,102475.38
2022-11-27T03:26:53.100Z,102478.56
2022-11-27T03:29:35.326Z,102486.50
2022-11-27T03:32:03.412Z,102481.75
2022-11-27T03:34:30.976Z,102488.31
2022-11-27T03:36:57.869Z,102479.75
2022-11-27T03:39:26.215Z,102476.16
2022-11-27T03:42:17.956Z,102468.41
2022-11-27T03:45:03.151Z,102457.25
2022-11-27T03:47:56.858Z,102469.41
2022-11-27T03:50:56.653Z,102455.66
2022-11-27T03:53:50.114Z,102452.28
2022-11-27T03:57:04.374Z,102453.28
2022-11-27T03:59:37.491Z,102445.28
2022-11-27T04:02:04.346Z,102445.53
2022-11-27T04:04:33.285Z,102445.53
2022-11-27T04:07:00.137Z,102443.91
2022-11-27T04:09:27.188Z,102446.50
2022-11-27T04:11:53.930Z,102444.69
2022-11-27T04:14:20.727Z,102441.13
2022-11-27T04:16:47.558Z,102452.28
2022-11-27T04:19:14.346Z,102466.63
2022-11-27T04:21:41.183Z,102461.44
2022-11-27T04:24:08.079Z,102455.47
2022-11-27T04:26:34.823Z,102454.09
2022-11-27T04:29:01.659Z,102460.25
2022-11-27T04:31:28.510Z,102461.88
2022-11-27T04:33:55.330Z,102455.09
2022-11-27T04:36:22.116Z,102449.91
2022-11-27T04:38:48.883Z,102453.09
2022-11-27T04:41:15.719Z,102444.72
2022-11-27T04:43:42.527Z,102432.56
2022-11-27T04:46:09.335Z,102427.19
2022-11-27T04:48:36.152Z,102429.59
2022-11-27T04:51:02.931Z,102427.19
2022-11-27T04:53:29.723Z,102419.44
2022-11-27T04:55:56.533Z,102416.84
2022-11-27T04:58:23.382Z,102414.25
2022-11-27T05:00:50.239Z,102407.28
2022-11-27T05:03:17.057Z,102407.28
2022-11-27T05:05:43.855Z,102403.50
2022-11-27T05:08:10.699Z,102391.56
2022-11-27T05:10:37.534Z,102398.53
2022-11-27T05:13:04.315Z,102393.16
2022-11-27T05:15:31.197Z,102393.94
2022-11-27T05:17:57.977Z,102392.16
2022-11-27T05:20:24.819Z,102384.97
2022-11-27T05:22:52.017Z,102378.22
2022-11-27T05:25:18.928Z,102380.56
2022-11-27T05:27:45.676Z,102370.22
2022-11-27T05:30:12.760Z,102369.03
2022-11-27T05:32:39.738Z,102369.03
2022-11-27T05:35:06.795Z,102369.81
2022-11-27T05:37:33.590Z,102361.47
2022-11-27T05:40:00.389Z,102358.44
2022-11-27T05:42:27.139Z,102359.47
2022-11-27T05:44:58.008Z,102360.63
2022-11-27T05:47:25.544Z,102359.84
2022-11-27T05:49:52.468Z,102358.03
2022-11-27T05:52:19.338Z,102353.44
2022-11-27T05:54:46.109Z,102349.06
2022-11-27T05:57:12.961Z,102342.31
2022-11-27T05:59:39.754Z,102348.06
2022-11-27T06:02:06.663Z,102353.25
2022-11-27T06:04:34.868Z,102341.88
2022-11-27T06:07:01.876Z,102344.47
2022-11-27T06:09:28.735Z,102349.66
2022-11-27T06:11:55.642Z,102351.25
2022-11-27T06:14:22.558Z,102338.31
2022-11-27T06:16:49.676Z,102342.47
2022-11-27T06:19:16.573Z,102353.84
2022-11-27T06:21:43.491Z,102340.31
2022-11-27T06:24:11.122Z,102345.50
2022-11-27T06:26:37.965Z,102343.69
2022-11-27T06:29:04.855Z,102333.91
2022-11-27T06:31:33.548Z,102329.94
2022-11-27T06:34:01.632Z,102324.78
2022-11-27T06:36:41.023Z,102322.19
2022-11-27T06:39:10.106Z,102322.78
2022-11-27T06:41:36.850Z,102322.78
2022-11-27T06:44:04.117Z,102313.41
2022-11-27T06:46:31.235Z,102311.59
2022-11-27T06:48:58.863Z,102316.00
2022-11-27T06:51:28.112Z,102313.41
2022-11-27T06:53:54.978Z,102311.59
2022-11-27T06:56:26.666Z,102305.63
2022-11-27T06:58:56.487Z,102310.81
2022-11-27T07:01:25.415Z,102311.59
2022-11-27T07:03:52.310Z,102311.41
2022-11-27T07:06:21.929Z,102319.94
2022-11-27T07:08:49.176Z,102309.38
2022-11-27T07:11:22.306Z,102304.41
2022-11-27T07:13:50.736Z,102295.66
2022-11-27T07:16:18.884Z,102292.03
2022-11-27T07:18:48.673Z,102287.69
2022-11-27T07:21:15.911Z,102282.50
2022-11-27T07:23:43.222Z,102278.91
2022-11-27T07:26:13.802Z,102272.16
2022-11-27T07:28:43.914Z,102270.13
2022-11-27T07:31:12.968Z,102265.94
2022-11-27T07:33:39.881Z,102254.03
2022-11-27T07:36:12.951Z,102256.16
2022-11-27T07:38:39.819Z,102249.44
2022-11-27T07:41:06.881Z,102247.81
2022-11-27T07:43:35.196Z,102250.22
2022-11-27T07:46:06.925Z,102245.81
2022-11-27T07:48:34.535Z,102242.03
2022-11-27T07:51:01.582Z,102238.63
2022-11-27T07:53:28.388Z,102245.41
2022-11-27T07:55:58.956Z,102240.22
2022-11-27T07:58:25.842Z,102239.22
2022-11-27T08:00:52.736Z,102240.59
2022-11-27T08:03:19.621Z,102241.59
2022-11-27T08:05:46.479Z,102244.75
2022-11-27T08:08:13.272Z,102242.97
2022-11-27T08:10:40.724Z,102238.59
2022-11-27T08:13:07.537Z,102232.19
2022-11-27T08:15:34.881Z,102232.19
2022-11-27T08:18:01.698Z,102228.59
2022-11-27T08:20:28.663Z,102227.38
2022-11-27T08:23:01.129Z,102228.75
2022-11-27T08:25:29.463Z,102220.97
2022-11-27T08:27:56.338Z,102214.19
2022-11-27T08:30:26.031Z,102208.59
2022-11-27T08:32:52.884Z,102219.53
2022-11-27T08:35:19.697Z,102234.06
2022-11-27T08:37:46.807Z,102224.53
2022-11-27T08:40:13.859Z,102231.47
2022-11-27T08:42:40.706Z,102233.88
2022-11-27T08:45:08.066Z,102232.44
2022-11-27T08:47:35.016Z,102226.06
2022-11-27T08:50:02.304Z,102227.63
2022-11-27T08:52:29.090Z,102229.22
2022-11-27T08:54:57.817Z,102224.03
2022-11-27T08:57:25.623Z,102221.22
2022-11-27T08:59:52.530Z,102227.41
2022-11-27T09:02:19.371Z,102233.19
2022-11-27T09:04:46.230Z,102231.56
2022-11-27T09:07:15.467Z,102226.19
2022-11-27T09:09:42.314Z,102229.16
2022-11-27T09:12:09.179Z,102224.53
2022-11-27T09:14:36.100Z,102228.72
2022-11-27T09:17:02.842Z,102230.09
2022-11-27T09:19:29.728Z,102227.50
2022-11-27T09:21:56.544Z,102220.06
2022-11-27T09:24:23.520Z,102217.06
2022-11-27T09:26:50.368Z,102228.22
2022-11-27T09:29:17.301Z,102221.03
2022-11-27T09:31:44.259Z,102213.03
2022-11-27T09:34:11.100Z,102217.56
2022-11-27T09:36:37.959Z,102218.50
2022-11-27T09:39:05.238Z,102210.53
2022-11-27T09:41:43.843Z,102210.31
2022-11-27T09:44:39.852Z,102211.09
2022-11-27T09:47:19.997Z,102192.75
2022-11-27T09:50:06.666Z,102207.63
2022-11-27T09:53:02.237Z,102201.00
2022-11-27T09:55:44.913Z,102191.22
2022-11-27T09:58:38.919Z,102186.19
2022-11-27T10:01:13.780Z,102176.78
2022-11-27T10:03:43.721Z,102189.34
2022-11-27T10:06:21.497Z,102175.91
2022-11-27T10:09:12.877Z,102173.91
2022-11-27T10:11:51.846Z,102180.22
2022-11-27T10:14:36.156Z,102176.41
2022-11-27T10:17:17.151Z,102171.00
2022-11-27T10:19:58.135Z,102163.56
2022-11-27T10:22:27.779Z,102161.34
2022-11-27T10:25:11.515Z,102166.06
2022-11-27T10:27:50.881Z,102158.06
2022-11-27T10:30:20.880Z,102148.06
2022-11-27T10:32:56.380Z,102144.44
2022-11-27T10:35:29.603Z,102150.22
2022-11-27T10:38:11.436Z,102148.63
2022-11-27T10:40:52.769Z,102151.22
2022-11-27T10:43:24.537Z,102147.19
2022-11-27T10:45:58.964Z,102149.22
2022-11-27T10:48:27.821Z,102141.22
2022-11-27T10:50:54.827Z,102130.38
2022-11-27T10:53:32.586Z,102126.34
2022-11-27T10:56:05.479Z,102118.69
2022-11-27T10:58:40.230Z,102116.44
2022-11-27T11:01:08.460Z,102107.75
2022-11-27T11:03:35.774Z,102113.84
2022-11-27T11:06:21.165Z,102108.00
2022-11-27T11:09:02.265Z,102106.97
2022-11-27T11:11:29.099Z,102092.41
2022-11-27T11:13:56.011Z,102088.34
2022-11-27T11:16:35.263Z,102087.09
2022-11-27T11:19:03.010Z,102091.03
2022-11-27T11:21:38.183Z,102084.84
2022-11-27T11:24:23.375Z,102078.75
2022-11-27T11:26:54.448Z,102074.69
2022-11-27T11:29:50.909Z,102068.00
2022-11-27T11:32:20.595Z,102060.34
2022-11-27T11:35:01.373Z,102036.28
2022-11-27T11:37:35.622Z,102045.19
2022-11-27T11:40:11.986Z,102045.63
2022-11-27T11:43:00.416Z,102043.56
2022-11-27T11:45:32.697Z,102039.97
2022-11-27T11:48:21.782Z,102037.94
2022-11-27T11:51:13.779Z,102028.88
2022-11-27T11:53:49.887Z,102037.47
2022-11-27T11:56:26.159Z,102022.69
2022-11-27T11:58:57.173Z,102021.41
2022-11-27T12:01:39.161Z,102018.81
2022-11-27T12:04:15.151Z,102020.31
2022-11-27T12:07:08.156Z,102011.47
2022-11-27T12:09:34.958Z,102007.41
2022-11-27T12:12:29.288Z,101996.56
2022-11-27T12:15:50.125Z,101993.25
2022-11-27T12:18:19.956Z,101995.47
2022-11-27T12:21:00.974Z,101984.41
2022-11-27T12:23:39.977Z,101970.91
2022-11-27T12:26:22.517Z,101977.22
2022-11-27T12:29:16.685Z,101968.41
2022-11-27T12:32:24.997Z,101954.88
2022-11-27T12:35:33.278Z,101946.03
2022-11-27T12:38:36.776Z,101948.63
2022-11-27T12:41:30.861Z,101954.78
2022-11-27T12:44:00.596Z,101953.66
2022-11-27T12:46:37.777Z,101950.72
2022-11-27T12:49:42.848Z,101952.78
2022-11-27T12:52:40.942Z,101938.78
2022-11-27T12:55:18.930Z,101931.44
2022-11-27T12:57:56.810Z,101927.56
2022-11-27T13:00:27.203Z,101930.44
2022-11-27T13:03:04.674Z,101922.84
2022-11-27T13:05:41.518Z,101918.66
2022-11-27T13:08:34.923Z,101922.53
2022-11-27T13:11:07.172Z,101917.81
2022-11-27T13:13:36.336Z,101924.81
2022-11-27T13:16:32.204Z,101911.25
2022-11-27T13:19:28.512Z,101908.66
2022-11-27T13:21:57.848Z,101898.75
2022-11-27T13:24:26.852Z,101902.84
2022-11-27T13:27:10.940Z,101895.50
2022-11-27T13:29:44.482Z,101896.75
2022-11-27T13:32:25.284Z,101896.44
2022-11-27T13:34:55.629Z,101901.06
2022-11-27T13:37:50.199Z,101895.31
2022-11-27T13:40:33.383Z,101887.31
2022-11-27T13:43:06.759Z,101889.13
2022-11-27T13:45:37.651Z,101878.94
2022-11-27T13:48:25.479Z,101878.41
2022-11-27T13:50:54.314Z,101882.47
2022-11-27T13:53:32.945Z,101875.69
2022-11-27T13:55:59.932Z,101875.94
2022-11-27T13:58:38.433Z,101866.00
2022-11-27T14:01:20.994Z,101845.13
2022-11-27T14:03:49.365Z,101842.53
2022-11-27T14:06:26.960Z,101839.16
2022-11-27T14:08:56.989Z,101836.00
2022-11-27T14:11:41.471Z,101826.88
2022-11-27T14:14:24.321Z,101833.41
2022-11-27T14:17:02.818Z,101822.47
2022-11-27T14:19:34.862Z,101822.69
2022-11-27T14:22:14.339Z,101816.94
2022-11-27T14:24:45.951Z,101821.38
2022-11-27T14:27:19.633Z,101811.75
2022-11-27T14:29:47.370Z,101816.66
2022-11-27T14:32:15.880Z,101812.25
2022-11-27T14:34:43.367Z,101811.91
2022-11-27T14:37:28.843Z,101803.91
2022-11-27T14:39:55.961Z,101800.75
2022-11-27T14:42:29.503Z,101799.72
2022-11-27T14:45:02.233Z,101787.53
2022-11-27T14:47:29.399Z,101789.88
2022-11-27T14:49:57.013Z,101780.97
2022-11-27T14:52:24.501Z,101776.06
2022-11-27T14:54:52.144Z,101777.84
2022-11-27T14:57:25.267Z,101776.81
2022-11-27T15:00:18.326Z,101772.31
2022-11-27T15:02:47.299Z,101774.91
2022-11-27T15:05:23.902Z,101765.78
2022-11-27T15:07:54.156Z,101769.41
2022-11-27T15:10:41.756Z,101766.81
2022-11-27T15:13:21.583Z,101768.63
2022-11-27T15:15:56.903Z,101771.69
2022-11-27T15:18:24.500Z,101769.31
2022-11-27T15:20:52.150Z,101761.75
2022-11-27T15:23:31.122Z,101766.94
2022-11-27T15:26:00.917Z,101759.97
2022-11-27T15:28:47.295Z,101750.59
2022-11-27T15:31:33.137Z,101752.41
2022-11-27T15:34:21.894Z,101738.09
2022-11-27T15:36:52.333Z,101724.56
2022-11-27T15:39:45.069Z,101723.53
2022-11-27T15:42:11.933Z,101724.56
2022-11-27T15:44:39.014Z,101719.13
2022-11-27T15:47:07.132Z,101716.53
2022-11-27T15:49:34.009Z,101717.34
2022-11-27T15:52:02.445Z,101703.81
2022-11-27T15:54:29.331Z,101697.03
2022-11-27T15:56:56.215Z,101703.25
2022-11-27T15:59:23.063Z,101713.16
2022-11-27T16:01:51.053Z,101702.22
2022-11-27T16:04:17.949Z,101713.38
2022-11-27T16:06:44.915Z,101705.84
2022-11-27T16:09:11.767Z,101705.03
2022-11-27T16:11:38.591Z,101704.25
2022-11-27T16:14:05.445Z,101704.03
2022-11-27T16:16:32.938Z,101706.63
2022-11-27T16:19:01.504Z,101702.22
2022-11-27T16:21:30.287Z,101688.25
2022-11-27T16:24:08.645Z,101682.25
2022-11-27T16:26:38.275Z,101681.47
2022-11-27T16:29:06.632Z,101676.06
2022-11-27T16:31:33.702Z,101675.28
2022-11-27T16:34:02.191Z,101670.06
2022-11-27T16:36:29.412Z,101669.81
2022-11-27T16:38:56.255Z,101657.88
2022-11-27T16:41:23.815Z,101659.44
2022-11-27T16:43:54.601Z,101654.03
2022-11-27T16:46:24.583Z,101649.06
2022-11-27T16:48:51.417Z,101643.66
2022-11-27T16:51:21.985Z,101636.09
2022-11-27T16:53:51.044Z,101634.31
2022-11-27T16:56:19.887Z,101630.13
2022-11-27T16:58:47.915Z,101632.72
2022-11-27T17:01:18.488Z,101625.72
2022-11-27T17:03:45.359Z,101629.13
2022-11-27T17:06:26.415Z,101617.69
2022-11-27T17:08:58.414Z,101620.28
2022-11-27T17:11:28.290Z,101614.31
2022-11-27T17:13:59.795Z,101612.50
2022-11-27T17:16:26.790Z,101617.94
2022-11-27T17:18:54.023Z,101611.19
2022-11-27T17:21:30.288Z,101603.63
2022-11-27T17:24:02.550Z,101607.25
2022-11-27T17:26:31.489Z,101612.44
2022-11-27T17:28:59.728Z,101608.81
2022-11-27T17:31:30.915Z,101598.91
2022-11-27T17:33:57.754Z,101593.72
2022-11-27T17:36:26.018Z,101601.50
2022-11-27T17:38:53.870Z,101592.13
2022-11-27T17:41:21.740Z,101586.16
2022-11-27T17:43:49.289Z,101588.53
2022-11-27T17:46:24.716Z,101583.56
2022-11-27T17:48:52.409Z,101584.34
2022-11-27T17:51:19.455Z,101571.88
2022-11-27T17:53:46.977Z,101582.78
2022-11-27T17:56:16.070Z,101571.63
2022-11-27T17:58:43.260Z,101575.00
2022-11-27T18:01:24.689Z,101574.22
2022-11-27T18:03:55.128Z,101566.19
2022-11-27T18:06:25.721Z,101563.81
2022-11-27T18:08:54.923Z,101561.22
2022-11-27T18:11:24.623Z,101556.31
2022-11-27T18:13:51.526Z,101548.53
2022-11-27T18:16:21.641Z,101540.75
2022-11-27T18:18:49.799Z,101544.34
2022-11-27T18:21:21.186Z,101539.94
2022-11-27T18:24:21.371Z,101535.53
2022-11-27T18:27:07.823Z,101528.78
2022-11-27T18:29:24.302Z,101529.56
2022-11-27T18:31:52.911Z,101527.19
2022-11-27T18:34:19.887Z,101520.44
2022-11-27T18:36:46.715Z,101528.00
2022-11-27T18:39:13.579Z,101516.81
2022-11-27T18:41:40.946Z,101527.19
2022-11-27T18:44:08.048Z,101516.81
2022-11-27T18:46:35.201Z,101516.03
2022-11-27T18:49:02.147Z,101503.28
2022-11-27T18:51:28.997Z,101511.06
2022-11-27T18:53:56.717Z,101499.69
2022-11-27T18:56:26.624Z,101499.69
2022-11-27T18:58:54.141Z,101502.28
2022-11-27T19:01:24.785Z,101492.44
2022-11-27T19:03:51.905Z,101486.47
2022-11-27T19:06:21.192Z,101483.09
2022-11-27T19:08:48.249Z,101485.69
2022-11-27T19:11:18.277Z,101481.53
2022-11-27T19:13:48.443Z,101474.75
2022-11-27T19:16:18.366Z,101473.75
2022-11-27T19:18:45.964Z,101484.91
2022-11-27T19:21:18.402Z,101474.47
2022-11-27T19:23:46.078Z,101472.66
2022-11-27T19:26:14.931Z,101467.91
2022-11-27T19:28:43.460Z,101466.69
2022-11-27T19:31:13.219Z,101471.06
2022-11-27T19:33:40.463Z,101465.88
2022-11-27T19:36:10.382Z,101459.13
2022-11-27T19:38:37.894Z,101455.19
2022-11-27T19:41:09.204Z,101451.91
2022-11-27T19:43:36.118Z,101451.91
2022-11-27T19:46:02.983Z,101452.13
2022-11-27T19:48:29.813Z,101445.38
2022-11-27T19:51:01.866Z,101444.56
2022-11-27T19:53:28.636Z,101435.22
2022-11-27T19:55:55.894Z,101432.41
2022-11-27T19:58:22.736Z,101429.00
2022-11-27T20:00:49.623Z,101421.47
2022-11-27T20:03:16.549Z,101425.06
2022-11-27T20:05:43.377Z,101419.09
2022-11-27T20:08:10.250Z,101402.22
2022-11-27T20:10:37.212Z,101406.59
2022-11-27T20:13:03.974Z,101403.22
2022-11-27T20:15:30.797Z,101397.81
2022-11-27T20:17:57.617Z,101385.63
2022-11-27T20:20:24.438Z,101387.44
2022-11-27T20:22:51.371Z,101383.78
2022-11-27T20:25:19.976Z,101379.66
2022-11-27T20:27:47.370Z,101376.50
2022-11-27T20:30:14.279Z,101367.94
2022-11-27T20:32:41.210Z,101366.38
2022-11-27T20:35:08.254Z,101366.38
2022-11-27T20:37:35.123Z,101366.13
2022-11-27T20:40:02.170Z,101365.59
2022-11-27T20:42:28.925Z,101364.81
2022-11-27T20:44:55.926Z,101360.41
2022-11-27T20:47:22.705Z,101355.69
2022-11-27T20:49:49.599Z,101348.16
2022-11-27T20:52:16.447Z,101341.72
2022-11-27T20:54:43.262Z,101345.84
2022-11-27T20:57:14.254Z,101347.97
2022-11-27T20:59:41.912Z,101330.28
2022-11-27T21:02:12.629Z,101332.88
2022-11-27T21:04:39.468Z,101336.53
2022-11-27T21:07:06.721Z,101328.75
2022-11-27T21:09:34.005Z,101331.34
2022-11-27T21:12:00.998Z,101324.88
2022-11-27T21:14:28.017Z,101330.84
2022-11-27T21:16:55.746Z,101325.66
2022-11-27T21:19:26.620Z,101323.56
2022-11-27T21:21:54.642Z,101318.13
2022-11-27T21:24:25.993Z,101315.78
2022-11-27T21:26:52.858Z,101312.41
2022-11-27T21:29:25.553Z,101309.00
2022-11-27T21:31:53.437Z,101311.13
2022-11-27T21:34:20.331Z,101309.00
2022-11-27T21:36:47.093Z,101303.56
2022-11-27T21:39:20.509Z,101316.53
2022-11-27T21:41:49.485Z,101290.31
2022-11-27T21:44:19.456Z,101297.06
2022-11-27T21:46:46.483Z,101301.72
2022-11-27T21:49:15.487Z,101286.41
2022-11-27T21:51:42.890Z,101282.78
2022-11-27T21:54:12.969Z,101290.31
2022-11-27T21:56:40.931Z,101288.75
2022-11-27T21:59:10.740Z,101281.50
2022-11-27T22:01:38.064Z,101274.75
2022-11-27T22:04:05.241Z,101281.50
2022-11-27T22:06:37.498Z,101283.31
2022-11-27T22:09:09.232Z,101284.34
2022-11-27T22:11:38.817Z,101271.38
2022-11-27T22:14:07.830Z,101270.09
2022-11-27T22:16:42.951Z,101254.00
2022-11-27T22:19:12.011Z,101248.03
2022-11-27T22:21:38.821Z,101247.25
2022-11-27T22:24:05.946Z,101240.25
2022-11-27T22:26:32.711Z,101238.19
2022-11-27T22:28:59.637Z,101231.47
2022-11-27T22:31:30.058Z,101217.44
2022-11-27T22:33:57.656Z,101223.19
2022-11-27T22:36:25.865Z,101223.97
2022-11-27T22:38:55.338Z,101210.44
2022-11-27T22:41:24.442Z,101206.84
2022-11-27T22:43:51.995Z,101199.59
2022-11-27T22:46:32.392Z,101192.84
2022-11-27T22:49:01.398Z,101195.69
2022-11-27T22:51:30.423Z,101192.84
2022-11-27T22:53:57.407Z,101189.47
2022-11-27T22:56:24.550Z,101188.19
2022-11-27T22:59:06.055Z,101188.47
2022-11-27T23:01:38.543Z,101195.19
2022-11-27T23:04:05.481Z,101196.28
2022-11-27T23:06:32.249Z,101193.13
2022-11-27T23:08:59.013Z,101189.53
2022-11-27T23:11:28.651Z,101180.94
2022-11-27T23:13:57.066Z,101179.94
2022-11-27T23:16:24.771Z,101177.56
2022-11-27T23:18:51.724Z,101179.94
2022-11-27T23:21:21.707Z,101171.09
2022-11-27T23:23:49.392Z,101177.88
2022-11-27T23:26:19.418Z,101187.47
2022-11-27T23:28:47.756Z,101183.06
2022-11-27T23:31:33.101Z,101168.03
2022-11-27T23:34:02.480Z,101177.41
2022-11-27T23:36:31.627Z,101172.22
2022-11-27T23:39:03.573Z,101161.84
2022-11-27T23:41:30.815Z,101164.97
2022-11-27T23:43:58.285Z,101156.66
2022-11-27T23:46:27.572Z,101157.19
2022-11-27T23:48:56.117Z,101156.16
2022-11-27T23:51:26.015Z,101150.22
2022-11-27T23:53:53.675Z,101146.56
2022-11-27T23:56:23.633Z,101141.38
2022-11-27T23:58:50.412Z,101147.09
